createdAt,value
2023-11-30T00:01:42.460Z,69.34
2023-11-30T00:16:44.229Z,68.49
2023-11-30T00:31:46.092Z,70.93
2023-11-30T00:46:47.866Z,70.55
2023-11-30T01:01:49.629Z,71.04
2023-11-30T01:16:51.400Z,70.79
2023-11-30T01:31:53.144Z,70.21
2023-11-30T01:46:55.699Z,71.83
2023-11-30T02:01:58.543Z,69.80
2023-11-30T02:17:00.351Z,69.60
2023-11-30T02:32:02.071Z,69.88
2023-11-30T02:47:03.990Z,71.55
2023-11-30T03:02:06.728Z,69.84
2023-11-30T03:17:08.475Z,70.64
2023-11-30T03:32:10.272Z,75.48
2023-11-30T03:47:12.126Z,73.96
2023-11-30T04:02:14.077Z,70.04
2023-11-30T04:17:15.838Z,76.53
2023-11-30T04:32:17.613Z,79.55
2023-11-30T04:47:19.326Z,79.51
2023-11-30T05:02:21.170Z,77.23
2023-11-30T05:17:22.881Z,75.08
2023-11-30T05:32:24.551Z,73.13
2023-11-30T05:47:26.559Z,73.52
2023-11-30T06:02:29.240Z,74.04
2023-11-30T06:17:30.978Z,72.99
2023-11-30T06:32:32.732Z,74.00
2023-11-30T06:47:34.542Z,72.84
2023-11-30T07:02:36.433Z,74.37
2023-11-30T07:17:38.264Z,73.09
2023-11-30T07:32:40.411Z,74.18
2023-11-30T07:47:42.148Z,72.00
2023-11-30T08:02:44.185Z,71.90
2023-11-30T08:17:47.485Z,73.51
2023-11-30T08:32:49.298Z,71.95
2023-11-30T08:47:52.132Z,72.80
2023-11-30T09:02:53.860Z,73.28
2023-11-30T09:17:57.847Z,75.21
2023-11-30T09:32:59.717Z,76.86
2023-11-30T09:48:01.699Z,71.15
2023-11-30T10:03:07.027Z,69.32
2023-11-30T10:18:09.182Z,69.66
2023-11-30T10:33:16.028Z,68.40
2023-11-30T10:48:20.059Z,70.24
2023-11-30T11:03:22.967Z,69.25
2023-11-30T11:18:31.533Z,69.64
2023-11-30T11:33:33.411Z,69.69
2023-11-30T11:48:35.171Z,70.85
2023-11-30T12:03:51.617Z,70.87
2023-11-30T12:18:53.938Z,71.58
2023-11-30T12:33:56.684Z,68.64
2023-11-30T12:48:58.483Z,67.31
2023-11-30T13:04:01.788Z,67.88
2023-11-30T13:19:04.608Z,66.92
2023-11-30T13:34:06.499Z,69.55
2023-11-30T13:49:14.017Z,69.64
2023-11-30T14:04:15.827Z,71.14
2023-11-30T14:19:17.746Z,69.37
2023-11-30T14:34:19.402Z,68.27
2023-11-30T14:49:21.193Z,69.49
2023-11-30T15:04:23.034Z,72.88
2023-11-30T15:19:24.787Z,72.60
2023-11-30T15:34:26.469Z,71.38
2023-11-30T15:49:28.957Z,73.52
2023-11-30T16:04:31.935Z,74.53
2023-11-30T16:19:36.945Z,76.55
2023-11-30T16:34:38.700Z,77.96
2023-11-30T16:49:40.442Z,76.07
2023-11-30T17:04:43.799Z,76.97
2023-11-30T17:19:45.535Z,75.40
2023-11-30T17:34:47.421Z,78.31
2023-11-30T17:49:49.266Z,78.16
2023-11-30T18:04:51.708Z,78.11
2023-11-30T18:19:53.429Z,81.23
2023-11-30T18:34:56.698Z,80.56
2023-11-30T18:49:58.430Z,79.10
2023-11-30T19:05:00.299Z,79.78
2023-11-30T19:20:02.177Z,78.85
2023-11-30T19:35:04.870Z,79.02
2023-11-30T19:50:07.469Z,81.52
2023-11-30T20:05:10.177Z,82.30
2023-11-30T20:20:12.253Z,79.44
2023-11-30T20:35:14.049Z,80.37
2023-11-30T20:50:15.790Z,80.62
2023-11-30T21:05:19.040Z,77.95
2023-11-30T21:20:20.900Z,77.43
2023-11-30T21:35:22.608Z,78.78
2023-11-30T21:50:26.303Z,79.62
2023-11-30T22:05:35.891Z,79.51
2023-11-30T22:20:38.632Z,79.34
2023-11-30T22:35:43.085Z,78.08
2023-11-30T22:50:44.990Z,77.60
2023-11-30T23:05:46.769Z,78.24
2023-11-30T23:20:48.505Z,78.45
2023-11-30T23:35:50.412Z,77.75
2023-11-30T23:50:52.104Z,81.16
